sensor_id;sensor_type;location;lat;lon;timestamp;P1;durP1;ratioP1;P2;durP2;ratioP2
48092;SDS011;33873;47.442;18.902;2023-09-19T00:00:48;8.75;;;4.45;;
48092;SDS011;33873;47.442;18.902;2023-09-19T00:03:16;7.55;;;4.45;;
48092;SDS011;33873;47.442;18.902;2023-09-19T00:05:44;8.48;;;4.75;;
48092;SDS011;33873;47.442;18.902;2023-09-19T00:08:13;15.73;;;3.87;;
48092;SDS011;33873;47.442;18.902;2023-09-19T00:10:42;9.57;;;4.47;;
48092;SDS011;33873;47.442;18.902;2023-09-19T00:13:10;11.07;;;5.93;;
48092;SDS011;33873;47.442;18.902;2023-09-19T00:15:44;8.63;;;4.45;;
48092;SDS011;33873;47.442;18.902;2023-09-19T00:18:17;10.60;;;5.53;;
48092;SDS011;33873;47.442;18.902;2023-09-19T00:20:50;8.93;;;5.03;;
48092;SDS011;33873;47.442;18.902;2023-09-19T00:23:19;8.93;;;5.10;;
48092;SDS011;33873;47.442;18.902;2023-09-19T00:25:48;9.45;;;5.57;;
48092;SDS011;33873;47.442;18.902;2023-09-19T00:28:17;14.13;;;5.45;;
48092;SDS011;33873;47.442;18.902;2023-09-19T00:30:46;9.32;;;5.68;;
48092;SDS011;33873;47.442;18.902;2023-09-19T00:33:20;11.18;;;5.68;;
48092;SDS011;33873;47.442;18.902;2023-09-19T00:35:52;10.55;;;5.53;;
48092;SDS011;33873;47.442;18.902;2023-09-19T00:38:21;9.48;;;5.60;;
48092;SDS011;33873;47.442;18.902;2023-09-19T00:40:50;8.95;;;5.37;;
48092;SDS011;33873;47.442;18.902;2023-09-19T00:43:23;19.70;;;6.35;;
48092;SDS011;33873;47.442;18.902;2023-09-19T00:45:53;11.48;;;5.93;;
48092;SDS011;33873;47.442;18.902;2023-09-19T00:48:22;16.90;;;5.82;;
48092;SDS011;33873;47.442;18.902;2023-09-19T00:50:50;10.55;;;5.22;;
48092;SDS011;33873;47.442;18.902;2023-09-19T00:53:19;16.12;;;8.70;;
48092;SDS011;33873;47.442;18.902;2023-09-19T00:55:48;8.27;;;4.90;;
48092;SDS011;33873;47.442;18.902;2023-09-19T00:58:17;11.10;;;5.80;;
48092;SDS011;33873;47.442;18.902;2023-09-19T01:00:46;10.75;;;4.90;;
48092;SDS011;33873;47.442;18.902;2023-09-19T01:03:15;16.08;;;5.82;;
48092;SDS011;33873;47.442;18.902;2023-09-19T01:05:43;7.93;;;5.55;;
48092;SDS011;33873;47.442;18.902;2023-09-19T01:08:11;10.63;;;5.75;;
48092;SDS011;33873;47.442;18.902;2023-09-19T01:13:56;12.27;;;5.78;;
48092;SDS011;33873;47.442;18.902;2023-09-19T01:22:10;11.57;;;5.97;;
48092;SDS011;33873;47.442;18.902;2023-09-19T01:30:31;13.25;;;6.53;;
48092;SDS011;33873;47.442;18.902;2023-09-19T01:33:02;14.43;;;6.57;;
48092;SDS011;33873;47.442;18.902;2023-09-19T01:35:31;13.40;;;6.45;;
48092;SDS011;33873;47.442;18.902;2023-09-19T01:38:00;11.00;;;7.05;;
48092;SDS011;33873;47.442;18.902;2023-09-19T01:40:27;8.98;;;6.53;;
48092;SDS011;33873;47.442;18.902;2023-09-19T01:45:32;11.80;;;5.82;;
48092;SDS011;33873;47.442;18.902;2023-09-19T01:48:15;12.60;;;7.05;;
48092;SDS011;33873;47.442;18.902;2023-09-19T01:51:00;22.90;;;6.43;;
48092;SDS011;33873;47.442;18.902;2023-09-19T01:53:35;11.65;;;6.55;;
48092;SDS011;33873;47.442;18.902;2023-09-19T01:56:05;13.38;;;6.10;;
48092;SDS011;33873;47.442;18.902;2023-09-19T01:58:42;10.98;;;6.18;;
48092;SDS011;33873;47.442;18.902;2023-09-19T02:01:15;14.60;;;8.40;;
48092;SDS011;33873;47.442;18.902;2023-09-19T02:03:46;13.62;;;7.65;;
48092;SDS011;33873;47.442;18.902;2023-09-19T02:06:15;12.35;;;8.00;;
48092;SDS011;33873;47.442;18.902;2023-09-19T02:08:43;11.05;;;6.60;;
48092;SDS011;33873;47.442;18.902;2023-09-19T02:11:12;14.25;;;8.65;;
48092;SDS011;33873;47.442;18.902;2023-09-19T02:13:40;12.75;;;7.68;;
48092;SDS011;33873;47.442;18.902;2023-09-19T02:16:09;14.18;;;9.00;;
48092;SDS011;33873;47.442;18.902;2023-09-19T02:18:38;11.07;;;7.00;;
48092;SDS011;33873;47.442;18.902;2023-09-19T02:21:06;17.02;;;8.45;;
48092;SDS011;33873;47.442;18.902;2023-09-19T02:23:34;10.68;;;7.00;;
48092;SDS011;33873;47.442;18.902;2023-09-19T02:26:02;12.18;;;6.43;;
48092;SDS011;33873;47.442;18.902;2023-09-19T02:28:31;12.95;;;6.20;;
48092;SDS011;33873;47.442;18.902;2023-09-19T02:30:59;10.30;;;6.90;;
48092;SDS011;33873;47.442;18.902;2023-09-19T02:33:27;14.85;;;9.23;;
48092;SDS011;33873;47.442;18.902;2023-09-19T02:36:00;14.48;;;6.65;;
48092;SDS011;33873;47.442;18.902;2023-09-19T02:38:28;23.08;;;6.95;;
48092;SDS011;33873;47.442;18.902;2023-09-19T02:40:56;12.77;;;7.68;;
48092;SDS011;33873;47.442;18.902;2023-09-19T02:43:24;16.23;;;7.78;;
48092;SDS011;33873;47.442;18.902;2023-09-19T02:45:52;12.43;;;7.30;;
48092;SDS011;33873;47.442;18.902;2023-09-19T02:48:24;17.85;;;8.05;;
48092;SDS011;33873;47.442;18.902;2023-09-19T02:50:52;10.35;;;6.72;;
48092;SDS011;33873;47.442;18.902;2023-09-19T02:53:20;15.40;;;7.40;;
48092;SDS011;33873;47.442;18.902;2023-09-19T02:55:48;13.30;;;6.93;;
48092;SDS011;33873;47.442;18.902;2023-09-19T02:58:16;12.02;;;6.62;;
48092;SDS011;33873;47.442;18.902;2023-09-19T03:00:46;11.20;;;6.47;;
48092;SDS011;33873;47.442;18.902;2023-09-19T03:03:16;13.20;;;7.15;;
48092;SDS011;33873;47.442;18.902;2023-09-19T03:05:44;9.88;;;7.07;;
48092;SDS011;33873;47.442;18.902;2023-09-19T03:08:15;16.42;;;7.95;;
48092;SDS011;33873;47.442;18.902;2023-09-19T03:10:46;10.70;;;5.05;;
48092;SDS011;33873;47.442;18.902;2023-09-19T03:13:14;11.88;;;7.10;;
48092;SDS011;33873;47.442;18.902;2023-09-19T03:15:43;12.45;;;7.30;;
48092;SDS011;33873;47.442;18.902;2023-09-19T03:18:19;19.40;;;8.77;;
48092;SDS011;33873;47.442;18.902;2023-09-19T03:20:53;16.98;;;7.97;;
48092;SDS011;33873;47.442;18.902;2023-09-19T03:23:28;19.50;;;8.27;;
48092;SDS011;33873;47.442;18.902;2023-09-19T03:25:56;22.55;;;7.43;;
48092;SDS011;33873;47.442;18.902;2023-09-19T03:28:26;14.10;;;7.20;;
48092;SDS011;33873;47.442;18.902;2023-09-19T03:31:02;12.00;;;5.65;;
48092;SDS011;33873;47.442;18.902;2023-09-19T03:33:32;8.48;;;6.25;;
48092;SDS011;33873;47.442;18.902;2023-09-19T03:36:01;15.68;;;6.82;;
48092;SDS011;33873;47.442;18.902;2023-09-19T03:38:33;10.85;;;6.70;;
48092;SDS011;33873;47.442;18.902;2023-09-19T03:41:02;11.88;;;5.90;;
48092;SDS011;33873;47.442;18.902;2023-09-19T03:43:31;23.25;;;6.78;;
48092;SDS011;33873;47.442;18.902;2023-09-19T03:46:02;10.00;;;6.55;;
48092;SDS011;33873;47.442;18.902;2023-09-19T03:48:32;16.08;;;7.65;;
48092;SDS011;33873;47.442;18.902;2023-09-19T03:51:01;11.32;;;6.93;;
48092;SDS011;33873;47.442;18.902;2023-09-19T03:53:29;24.48;;;8.77;;
48092;SDS011;33873;47.442;18.902;2023-09-19T03:55:57;12.37;;;6.97;;
48092;SDS011;33873;47.442;18.902;2023-09-19T03:58:25;10.63;;;6.18;;
48092;SDS011;33873;47.442;18.902;2023-09-19T04:00:55;10.43;;;6.28;;
48092;SDS011;33873;47.442;18.902;2023-09-19T04:03:26;11.45;;;7.15;;
48092;SDS011;33873;47.442;18.902;2023-09-19T04:06:02;8.77;;;5.87;;
48092;SDS011;33873;47.442;18.902;2023-09-19T04:08:30;10.30;;;6.47;;
48092;SDS011;33873;47.442;18.902;2023-09-19T04:10:58;10.68;;;7.15;;
48092;SDS011;33873;47.442;18.902;2023-09-19T04:13:25;12.65;;;7.22;;
48092;SDS011;33873;47.442;18.902;2023-09-19T04:15:53;16.10;;;7.45;;
48092;SDS011;33873;47.442;18.902;2023-09-19T04:18:21;8.43;;;5.82;;
48092;SDS011;33873;47.442;18.902;2023-09-19T04:20:50;8.68;;;4.97;;
48092;SDS011;33873;47.442;18.902;2023-09-19T04:23:18;8.95;;;5.85;;
48092;SDS011;33873;47.442;18.902;2023-09-19T04:25:48;8.13;;;3.80;;
48092;SDS011;33873;47.442;18.902;2023-09-19T04:28:16;4.62;;;2.62;;
48092;SDS011;33873;47.442;18.902;2023-09-19T04:30:44;5.35;;;2.75;;
48092;SDS011;33873;47.442;18.902;2023-09-19T04:33:11;3.33;;;1.48;;
48092;SDS011;33873;47.442;18.902;2023-09-19T04:35:41;3.50;;;1.37;;
48092;SDS011;33873;47.442;18.902;2023-09-19T04:38:12;3.15;;;1.37;;
48092;SDS011;33873;47.442;18.902;2023-09-19T04:40:40;2.17;;;0.95;;
48092;SDS011;33873;47.442;18.902;2023-09-19T04:43:08;17.60;;;1.33;;
48092;SDS011;33873;47.442;18.902;2023-09-19T04:45:36;6.03;;;1.27;;
48092;SDS011;33873;47.442;18.902;2023-09-19T04:48:06;3.42;;;0.55;;
48092;SDS011;33873;47.442;18.902;2023-09-19T04:50:34;2.15;;;1.20;;
48092;SDS011;33873;47.442;18.902;2023-09-19T04:53:02;1.90;;;1.12;;
48092;SDS011;33873;47.442;18.902;2023-09-19T04:55:30;1.55;;;0.70;;
48092;SDS011;33873;47.442;18.902;2023-09-19T04:58:00;1.37;;;0.62;;
48092;SDS011;33873;47.442;18.902;2023-09-19T05:00:28;5.43;;;1.23;;
48092;SDS011;33873;47.442;18.902;2023-09-19T05:02:58;1.77;;;0.93;;
48092;SDS011;33873;47.442;18.902;2023-09-19T05:05:25;1.20;;;0.73;;
48092;SDS011;33873;47.442;18.902;2023-09-19T05:07:54;1.55;;;0.75;;
48092;SDS011;33873;47.442;18.902;2023-09-19T05:10:23;0.88;;;0.43;;
48092;SDS011;33873;47.442;18.902;2023-09-19T05:12:53;0.30;;;0.28;;
48092;SDS011;33873;47.442;18.902;2023-09-19T05:15:21;1.52;;;0.50;;
48092;SDS011;33873;47.442;18.902;2023-09-19T05:17:52;2.50;;;0.85;;
48092;SDS011;33873;47.442;18.902;2023-09-19T05:20:25;0.60;;;0.43;;
48092;SDS011;33873;47.442;18.902;2023-09-19T05:23:06;1.85;;;0.65;;
48092;SDS011;33873;47.442;18.902;2023-09-19T05:25:44;1.10;;;0.68;;
48092;SDS011;33873;47.442;18.902;2023-09-19T05:28:11;5.45;;;0.80;;
48092;SDS011;33873;47.442;18.902;2023-09-19T05:30:42;1.73;;;0.82;;
48092;SDS011;33873;47.442;18.902;2023-09-19T05:33:15;1.20;;;0.68;;
48092;SDS011;33873;47.442;18.902;2023-09-19T05:35:42;1.80;;;0.37;;
48092;SDS011;33873;47.442;18.902;2023-09-19T05:38:10;0.52;;;0.52;;
48092;SDS011;33873;47.442;18.902;2023-09-19T05:40:40;1.17;;;0.70;;
48092;SDS011;33873;47.442;18.902;2023-09-19T05:43:12;1.40;;;0.60;;
48092;SDS011;33873;47.442;18.902;2023-09-19T05:45:41;3.10;;;1.10;;
48092;SDS011;33873;47.442;18.902;2023-09-19T05:48:10;1.45;;;0.52;;
48092;SDS011;33873;47.442;18.902;2023-09-19T05:50:43;2.30;;;1.12;;
48092;SDS011;33873;47.442;18.902;2023-09-19T05:53:10;0.45;;;0.30;;
48092;SDS011;33873;47.442;18.902;2023-09-19T05:55:40;1.52;;;0.60;;
48092;SDS011;33873;47.442;18.902;2023-09-19T05:58:08;1.55;;;0.52;;
48092;SDS011;33873;47.442;18.902;2023-09-19T06:00:37;2.15;;;0.43;;
48092;SDS011;33873;47.442;18.902;2023-09-19T06:03:06;1.58;;;0.85;;
48092;SDS011;33873;47.442;18.902;2023-09-19T06:05:35;1.45;;;0.52;;
48092;SDS011;33873;47.442;18.902;2023-09-19T06:08:02;3.67;;;1.48;;
48092;SDS011;33873;47.442;18.902;2023-09-19T06:10:35;4.10;;;0.77;;
48092;SDS011;33873;47.442;18.902;2023-09-19T06:13:03;1.62;;;0.57;;
48092;SDS011;33873;47.442;18.902;2023-09-19T06:15:37;0.70;;;0.30;;
48092;SDS011;33873;47.442;18.902;2023-09-19T06:18:05;1.10;;;0.52;;
48092;SDS011;33873;47.442;18.902;2023-09-19T06:20:39;1.65;;;0.65;;
48092;SDS011;33873;47.442;18.902;2023-09-19T06:23:11;1.92;;;1.25;;
48092;SDS011;33873;47.442;18.902;2023-09-19T06:25:38;0.85;;;0.45;;
48092;SDS011;33873;47.442;18.902;2023-09-19T06:28:06;1.33;;;0.75;;
48092;SDS011;33873;47.442;18.902;2023-09-19T06:30:35;1.02;;;0.40;;
48092;SDS011;33873;47.442;18.902;2023-09-19T06:33:03;1.12;;;0.52;;
48092;SDS011;33873;47.442;18.902;2023-09-19T06:35:31;5.43;;;1.02;;
48092;SDS011;33873;47.442;18.902;2023-09-19T06:38:02;0.85;;;0.62;;
48092;SDS011;33873;47.442;18.902;2023-09-19T06:40:31;2.97;;;0.77;;
48092;SDS011;33873;47.442;18.902;2023-09-19T06:43:01;2.08;;;0.68;;
48092;SDS011;33873;47.442;18.902;2023-09-19T06:45:29;3.28;;;0.57;;
48092;SDS011;33873;47.442;18.902;2023-09-19T06:47:57;1.17;;;0.57;;
48092;SDS011;33873;47.442;18.902;2023-09-19T06:50:26;2.42;;;0.85;;
48092;SDS011;33873;47.442;18.902;2023-09-19T06:52:54;1.35;;;0.62;;
48092;SDS011;33873;47.442;18.902;2023-09-19T06:55:25;0.85;;;0.65;;
48092;SDS011;33873;47.442;18.902;2023-09-19T06:57:56;3.10;;;0.40;;
48092;SDS011;33873;47.442;18.902;2023-09-19T07:00:23;1.20;;;0.47;;
48092;SDS011;33873;47.442;18.902;2023-09-19T07:02:58;1.17;;;0.52;;
48092;SDS011;33873;47.442;18.902;2023-09-19T07:05:28;2.20;;;0.40;;
48092;SDS011;33873;47.442;18.902;2023-09-19T07:08:00;0.77;;;0.60;;
48092;SDS011;33873;47.442;18.902;2023-09-19T07:10:28;3.95;;;0.98;;
48092;SDS011;33873;47.442;18.902;2023-09-19T07:13:03;1.10;;;0.47;;
48092;SDS011;33873;47.442;18.902;2023-09-19T07:15:32;0.43;;;0.43;;
48092;SDS011;33873;47.442;18.902;2023-09-19T07:18:06;0.75;;;0.65;;
48092;SDS011;33873;47.442;18.902;2023-09-19T07:20:34;1.20;;;0.57;;
48092;SDS011;33873;47.442;18.902;2023-09-19T07:23:02;2.05;;;1.05;;
48092;SDS011;33873;47.442;18.902;2023-09-19T07:25:30;1.55;;;0.70;;
48092;SDS011;33873;47.442;18.902;2023-09-19T07:27:58;1.02;;;0.82;;
48092;SDS011;33873;47.442;18.902;2023-09-19T07:30:28;1.45;;;0.62;;
48092;SDS011;33873;47.442;18.902;2023-09-19T07:32:56;2.20;;;0.90;;
48092;SDS011;33873;47.442;18.902;2023-09-19T07:35:24;1.98;;;0.85;;
48092;SDS011;33873;47.442;18.902;2023-09-19T07:37:53;1.95;;;0.52;;
48092;SDS011;33873;47.442;18.902;2023-09-19T07:40:20;2.60;;;0.88;;
48092;SDS011;33873;47.442;18.902;2023-09-19T07:42:49;1.50;;;0.90;;
48092;SDS011;33873;47.442;18.902;2023-09-19T07:45:18;2.87;;;1.25;;
48092;SDS011;33873;47.442;18.902;2023-09-19T07:47:50;2.40;;;0.75;;
48092;SDS011;33873;47.442;18.902;2023-09-19T07:50:19;3.00;;;0.93;;
48092;SDS011;33873;47.442;18.902;2023-09-19T07:52:47;2.65;;;1.12;;
48092;SDS011;33873;47.442;18.902;2023-09-19T07:55:16;1.85;;;0.57;;
48092;SDS011;33873;47.442;18.902;2023-09-19T07:57:45;1.62;;;0.73;;
48092;SDS011;33873;47.442;18.902;2023-09-19T08:00:13;1.33;;;0.75;;
48092;SDS011;33873;47.442;18.902;2023-09-19T08:02:42;4.82;;;1.42;;
48092;SDS011;33873;47.442;18.902;2023-09-19T08:05:10;3.53;;;0.57;;
48092;SDS011;33873;47.442;18.902;2023-09-19T08:07:39;1.08;;;0.62;;
48092;SDS011;33873;47.442;18.902;2023-09-19T08:10:09;2.17;;;1.17;;
48092;SDS011;33873;47.442;18.902;2023-09-19T08:12:47;2.42;;;1.10;;
48092;SDS011;33873;47.442;18.902;2023-09-19T08:15:16;3.05;;;1.00;;
48092;SDS011;33873;47.442;18.902;2023-09-19T08:17:46;0.73;;;0.52;;
48092;SDS011;33873;47.442;18.902;2023-09-19T08:20:17;1.23;;;0.50;;
48092;SDS011;33873;47.442;18.902;2023-09-19T08:22:49;2.00;;;1.15;;
48092;SDS011;33873;47.442;18.902;2023-09-19T08:25:21;1.17;;;0.73;;
48092;SDS011;33873;47.442;18.902;2023-09-19T08:27:49;1.45;;;0.52;;
48092;SDS011;33873;47.442;18.902;2023-09-19T08:30:17;2.65;;;1.35;;
48092;SDS011;33873;47.442;18.902;2023-09-19T08:32:47;2.05;;;0.73;;
48092;SDS011;33873;47.442;18.902;2023-09-19T08:35:15;4.12;;;1.05;;
48092;SDS011;33873;47.442;18.902;2023-09-19T08:37:43;3.83;;;1.00;;
48092;SDS011;33873;47.442;18.902;2023-09-19T08:40:14;1.00;;;0.57;;
48092;SDS011;33873;47.442;18.902;2023-09-19T08:42:48;2.60;;;0.95;;
48092;SDS011;33873;47.442;18.902;2023-09-19T08:45:21;2.05;;;0.60;;
48092;SDS011;33873;47.442;18.902;2023-09-19T08:50:49;5.65;;;2.50;;
48092;SDS011;33873;47.442;18.902;2023-09-19T08:53:26;1.98;;;1.02;;
48092;SDS011;33873;47.442;18.902;2023-09-19T08:55:57;3.83;;;1.73;;
48092;SDS011;33873;47.442;18.902;2023-09-19T08:58:25;4.12;;;2.20;;
48092;SDS011;33873;47.442;18.902;2023-09-19T09:00:57;1.90;;;1.12;;
48092;SDS011;33873;47.442;18.902;2023-09-19T09:03:25;2.40;;;1.25;;
48092;SDS011;33873;47.442;18.902;2023-09-19T09:05:53;5.12;;;2.90;;
48092;SDS011;33873;47.442;18.902;2023-09-19T09:08:22;5.12;;;1.80;;
48092;SDS011;33873;47.442;18.902;2023-09-19T09:10:50;5.28;;;2.80;;
48092;SDS011;33873;47.442;18.902;2023-09-19T09:13:18;3.83;;;1.62;;
48092;SDS011;33873;47.442;18.902;2023-09-19T09:15:46;3.70;;;1.98;;
48092;SDS011;33873;47.442;18.902;2023-09-19T09:18:14;3.67;;;1.58;;
48092;SDS011;33873;47.442;18.902;2023-09-19T09:20:42;2.47;;;1.70;;
48092;SDS011;33873;47.442;18.902;2023-09-19T09:23:11;4.55;;;2.55;;
48092;SDS011;33873;47.442;18.902;2023-09-19T09:25:50;5.45;;;2.30;;
48092;SDS011;33873;47.442;18.902;2023-09-19T09:28:26;3.40;;;1.87;;
48092;SDS011;33873;47.442;18.902;2023-09-19T09:30:55;3.40;;;1.73;;
48092;SDS011;33873;47.442;18.902;2023-09-19T09:33:24;3.25;;;1.77;;
48092;SDS011;33873;47.442;18.902;2023-09-19T09:35:58;4.37;;;1.77;;
48092;SDS011;33873;47.442;18.902;2023-09-19T09:38:42;4.65;;;2.33;;
48092;SDS011;33873;47.442;18.902;2023-09-19T09:41:11;4.60;;;1.95;;
48092;SDS011;33873;47.442;18.902;2023-09-19T09:43:43;6.12;;;3.12;;
48092;SDS011;33873;47.442;18.902;2023-09-19T09:46:18;4.57;;;2.92;;
48092;SDS011;33873;47.442;18.902;2023-09-19T09:49:06;4.57;;;2.95;;
48092;SDS011;33873;47.442;18.902;2023-09-19T09:51:59;4.10;;;2.45;;
48092;SDS011;33873;47.442;18.902;2023-09-19T09:54:28;3.97;;;2.17;;
48092;SDS011;33873;47.442;18.902;2023-09-19T09:57:06;4.93;;;2.78;;
48092;SDS011;33873;47.442;18.902;2023-09-19T09:59:51;4.93;;;2.78;;
48092;SDS011;33873;47.442;18.902;2023-09-19T10:02:26;4.00;;;2.60;;
48092;SDS011;33873;47.442;18.902;2023-09-19T10:05:14;5.43;;;3.12;;
48092;SDS011;33873;47.442;18.902;2023-09-19T10:07:55;5.35;;;2.67;;
48092;SDS011;33873;47.442;18.902;2023-09-19T10:10:32;6.18;;;3.90;;
48092;SDS011;33873;47.442;18.902;2023-09-19T10:13:13;3.80;;;2.92;;
48092;SDS011;33873;47.442;18.902;2023-09-19T10:15:48;5.87;;;3.78;;
48092;SDS011;33873;47.442;18.902;2023-09-19T10:20:51;5.32;;;3.12;;
48092;SDS011;33873;47.442;18.902;2023-09-19T10:23:19;4.37;;;2.78;;
48092;SDS011;33873;47.442;18.902;2023-09-19T10:25:52;4.28;;;2.70;;
48092;SDS011;33873;47.442;18.902;2023-09-19T10:28:20;4.78;;;3.37;;
48092;SDS011;33873;47.442;18.902;2023-09-19T10:30:52;5.00;;;2.47;;
48092;SDS011;33873;47.442;18.902;2023-09-19T10:33:21;4.25;;;3.10;;
48092;SDS011;33873;47.442;18.902;2023-09-19T10:35:53;4.37;;;2.35;;
48092;SDS011;33873;47.442;18.902;2023-09-19T10:38:24;7.57;;;3.67;;
48092;SDS011;33873;47.442;18.902;2023-09-19T10:40:54;2.75;;;1.62;;
48092;SDS011;33873;47.442;18.902;2023-09-19T10:46:08;7.57;;;2.62;;
48092;SDS011;33873;47.442;18.902;2023-09-19T10:48:40;3.65;;;2.00;;
48092;SDS011;33873;47.442;18.902;2023-09-19T10:51:12;5.07;;;3.03;;
48092;SDS011;33873;47.442;18.902;2023-09-19T10:53:45;4.22;;;2.30;;
48092;SDS011;33873;47.442;18.902;2023-09-19T10:56:22;5.55;;;3.20;;
48092;SDS011;33873;47.442;18.902;2023-09-19T11:01:50;4.82;;;1.67;;
48092;SDS011;33873;47.442;18.902;2023-09-19T11:04:28;3.67;;;1.62;;
48092;SDS011;33873;47.442;18.902;2023-09-19T11:09:50;3.53;;;1.55;;
48092;SDS011;33873;47.442;18.902;2023-09-19T11:14:59;3.75;;;1.65;;
48092;SDS011;33873;47.442;18.902;2023-09-19T11:17:31;3.42;;;1.40;;
48092;SDS011;33873;47.442;18.902;2023-09-19T11:30:33;2.15;;;1.20;;
48092;SDS011;33873;47.442;18.902;2023-09-19T11:33:20;3.58;;;1.25;;
48092;SDS011;33873;47.442;18.902;2023-09-19T11:36:14;2.90;;;1.30;;
48092;SDS011;33873;47.442;18.902;2023-09-19T11:46:23;2.58;;;0.62;;
48092;SDS011;33873;47.442;18.902;2023-09-19T11:48:51;6.25;;;1.30;;
48092;SDS011;33873;47.442;18.902;2023-09-19T11:51:22;4.22;;;1.12;;
48092;SDS011;33873;47.442;18.902;2023-09-19T11:53:54;2.12;;;0.82;;
48092;SDS011;33873;47.442;18.902;2023-09-19T11:56:23;1.65;;;1.08;;
48092;SDS011;33873;47.442;18.902;2023-09-19T11:58:55;2.40;;;1.15;;
48092;SDS011;33873;47.442;18.902;2023-09-19T12:01:30;3.22;;;1.25;;
48092;SDS011;33873;47.442;18.902;2023-09-19T12:04:02;1.62;;;1.00;;
48092;SDS011;33873;47.442;18.902;2023-09-19T12:06:32;3.58;;;1.85;;
48092;SDS011;33873;47.442;18.902;2023-09-19T12:09:00;4.45;;;0.95;;
48092;SDS011;33873;47.442;18.902;2023-09-19T12:11:33;2.67;;;1.15;;
48092;SDS011;33873;47.442;18.902;2023-09-19T12:14:11;3.72;;;1.17;;
48092;SDS011;33873;47.442;18.902;2023-09-19T12:16:39;2.55;;;1.15;;
48092;SDS011;33873;47.442;18.902;2023-09-19T12:19:19;2.58;;;1.25;;
48092;SDS011;33873;47.442;18.902;2023-09-19T12:21:54;4.57;;;1.25;;
48092;SDS011;33873;47.442;18.902;2023-09-19T12:24:26;3.28;;;1.77;;
48092;SDS011;33873;47.442;18.902;2023-09-19T12:27:01;2.75;;;1.35;;
48092;SDS011;33873;47.442;18.902;2023-09-19T12:29:48;3.05;;;1.25;;
48092;SDS011;33873;47.442;18.902;2023-09-19T12:32:16;3.03;;;1.15;;
48092;SDS011;33873;47.442;18.902;2023-09-19T12:34:52;2.10;;;1.45;;
48092;SDS011;33873;47.442;18.902;2023-09-19T12:37:22;1.98;;;0.98;;
48092;SDS011;33873;47.442;18.902;2023-09-19T12:39:50;0.98;;;0.62;;
48092;SDS011;33873;47.442;18.902;2023-09-19T12:42:23;2.17;;;1.20;;
48092;SDS011;33873;47.442;18.902;2023-09-19T12:44:51;3.10;;;1.25;;
48092;SDS011;33873;47.442;18.902;2023-09-19T12:47:28;1.95;;;0.80;;
48092;SDS011;33873;47.442;18.902;2023-09-19T12:50:13;2.33;;;0.85;;
48092;SDS011;33873;47.442;18.902;2023-09-19T12:52:48;3.15;;;1.02;;
48092;SDS011;33873;47.442;18.902;2023-09-19T12:55:20;3.25;;;1.05;;
48092;SDS011;33873;47.442;18.902;2023-09-19T13:00:32;4.50;;;1.12;;
48092;SDS011;33873;47.442;18.902;2023-09-19T13:03:32;4.55;;;1.05;;
48092;SDS011;33873;47.442;18.902;2023-09-19T13:06:02;1.60;;;1.05;;
48092;SDS011;33873;47.442;18.902;2023-09-19T13:08:32;1.77;;;0.95;;
48092;SDS011;33873;47.442;18.902;2023-09-19T13:11:05;1.92;;;1.12;;
48092;SDS011;33873;47.442;18.902;2023-09-19T13:13:38;3.83;;;1.42;;
48092;SDS011;33873;47.442;18.902;2023-09-19T13:16:16;2.28;;;1.10;;
48092;SDS011;33873;47.442;18.902;2023-09-19T13:18:52;3.58;;;1.52;;
48092;SDS011;33873;47.442;18.902;2023-09-19T13:21:27;2.90;;;1.05;;
48092;SDS011;33873;47.442;18.902;2023-09-19T13:26:48;2.33;;;1.08;;
48092;SDS011;33873;47.442;18.902;2023-09-19T13:29:16;2.40;;;1.12;;
48092;SDS011;33873;47.442;18.902;2023-09-19T13:31:48;3.95;;;0.98;;
48092;SDS011;33873;47.442;18.902;2023-09-19T13:34:17;2.85;;;1.15;;
48092;SDS011;33873;47.442;18.902;2023-09-19T13:36:45;3.85;;;1.23;;
48092;SDS011;33873;47.442;18.902;2023-09-19T13:39:16;1.67;;;0.85;;
48092;SDS011;33873;47.442;18.902;2023-09-19T13:41:45;1.37;;;0.82;;
48092;SDS011;33873;47.442;18.902;2023-09-19T13:44:14;2.65;;;1.27;;
48092;SDS011;33873;47.442;18.902;2023-09-19T13:46:43;4.22;;;1.35;;
48092;SDS011;33873;47.442;18.902;2023-09-19T13:49:14;3.05;;;1.48;;
48092;SDS011;33873;47.442;18.902;2023-09-19T13:51:42;2.72;;;1.17;;
48092;SDS011;33873;47.442;18.902;2023-09-19T13:54:12;2.55;;;1.37;;
48092;SDS011;33873;47.442;18.902;2023-09-19T13:56:40;2.47;;;1.23;;
48092;SDS011;33873;47.442;18.902;2023-09-19T13:59:07;2.95;;;1.17;;
48092;SDS011;33873;47.442;18.902;2023-09-19T14:01:35;4.03;;;1.67;;
48092;SDS011;33873;47.442;18.902;2023-09-19T14:04:03;3.12;;;1.30;;
48092;SDS011;33873;47.442;18.902;2023-09-19T14:06:31;4.57;;;1.52;;
48092;SDS011;33873;47.442;18.902;2023-09-19T14:08:58;3.25;;;1.27;;
48092;SDS011;33873;47.442;18.902;2023-09-19T14:11:28;3.47;;;1.58;;
48092;SDS011;33873;47.442;18.902;2023-09-19T14:13:55;3.62;;;1.23;;
48092;SDS011;33873;47.442;18.902;2023-09-19T14:16:24;2.45;;;0.93;;
48092;SDS011;33873;47.442;18.902;2023-09-19T14:18:52;1.77;;;0.93;;
48092;SDS011;33873;47.442;18.902;2023-09-19T14:21:20;2.92;;;1.37;;
48092;SDS011;33873;47.442;18.902;2023-09-19T14:23:47;2.72;;;1.23;;
48092;SDS011;33873;47.442;18.902;2023-09-19T14:26:16;4.57;;;1.45;;
48092;SDS011;33873;47.442;18.902;2023-09-19T14:28:45;6.18;;;1.05;;
48092;SDS011;33873;47.442;18.902;2023-09-19T14:31:13;2.53;;;1.27;;
48092;SDS011;33873;47.442;18.902;2023-09-19T14:33:42;2.67;;;1.27;;
48092;SDS011;33873;47.442;18.902;2023-09-19T14:36:11;3.92;;;1.40;;
48092;SDS011;33873;47.442;18.902;2023-09-19T14:38:39;2.65;;;1.10;;
48092;SDS011;33873;47.442;18.902;2023-09-19T14:41:08;4.82;;;1.77;;
48092;SDS011;33873;47.442;18.902;2023-09-19T14:43:36;3.70;;;1.40;;
48092;SDS011;33873;47.442;18.902;2023-09-19T14:46:04;3.20;;;1.40;;
48092;SDS011;33873;47.442;18.902;2023-09-19T14:48:35;6.32;;;1.77;;
48092;SDS011;33873;47.442;18.902;2023-09-19T14:51:06;0.90;;;0.62;;
48092;SDS011;33873;47.442;18.902;2023-09-19T14:53:39;1.92;;;1.27;;
48092;SDS011;33873;47.442;18.902;2023-09-19T14:56:08;1.48;;;0.88;;
48092;SDS011;33873;47.442;18.902;2023-09-19T14:58:36;2.65;;;1.35;;
48092;SDS011;33873;47.442;18.902;2023-09-19T15:01:10;3.55;;;1.48;;
48092;SDS011;33873;47.442;18.902;2023-09-19T15:03:39;3.92;;;1.83;;
48092;SDS011;33873;47.442;18.902;2023-09-19T15:06:09;2.20;;;1.05;;
48092;SDS011;33873;47.442;18.902;2023-09-19T15:08:42;4.68;;;1.98;;
48092;SDS011;33873;47.442;18.902;2023-09-19T15:11:18;5.28;;;0.93;;
48092;SDS011;33873;47.442;18.902;2023-09-19T15:13:46;3.42;;;0.93;;
48092;SDS011;33873;47.442;18.902;2023-09-19T15:16:15;4.32;;;1.52;;
48092;SDS011;33873;47.442;18.902;2023-09-19T15:18:44;1.75;;;1.05;;
48092;SDS011;33873;47.442;18.902;2023-09-19T15:21:14;4.32;;;2.30;;
48092;SDS011;33873;47.442;18.902;2023-09-19T15:23:42;3.75;;;1.95;;
48092;SDS011;33873;47.442;18.902;2023-09-19T15:26:12;2.30;;;0.95;;
48092;SDS011;33873;47.442;18.902;2023-09-19T15:28:40;3.37;;;1.33;;
48092;SDS011;33873;47.442;18.902;2023-09-19T15:31:10;2.10;;;1.08;;
48092;SDS011;33873;47.442;18.902;2023-09-19T15:33:38;3.15;;;1.70;;
48092;SDS011;33873;47.442;18.902;2023-09-19T15:36:10;8.25;;;1.85;;
48092;SDS011;33873;47.442;18.902;2023-09-19T15:41:29;4.03;;;1.27;;
48092;SDS011;33873;47.442;18.902;2023-09-19T15:43:59;2.53;;;1.08;;
48092;SDS011;33873;47.442;18.902;2023-09-19T15:46:31;1.92;;;1.12;;
48092;SDS011;33873;47.442;18.902;2023-09-19T15:49:03;1.85;;;1.15;;
48092;SDS011;33873;47.442;18.902;2023-09-19T15:51:31;3.20;;;1.33;;